18:16
Airports
History
Links
Donate
Help keep this website running!
PayPal
Bitcoin
This page is community maintained. The information is intended for PC simulator navigation or reference.
Always use approved charts for navigation.
SJXA
Aeromis
Aeromis (SJXA)
Bagé, Rio Grande do Sul, Brazil (96405)
4
Lat/Lng:31° 17' 32" S / 54° 9' 22" W
-31.292222 / -54.156111
Elevation:886'ft / 270mMSL
ID / ICAO:SJXA
Runways:1
Longest:18-36
Grass 435m / 1,426ft
Nearby Weather18:00 GMT 2017-10-19
Nearby weather at SBBG, Comandante Gustavo Kraemer located 7.3 nautical miles from SJXA
Altimeter: 29.97
Visibility: 6.2 statute miles
Wind: 10 knots (from 220°)
Temp: 21°c / 70°f
Humidity: 64.3%

METAR: SBBG 191800Z 22010KT 9999 BKN025 21/14 Q1015

(Powered by phpweather)
Runway 18 / 36
Dimensions:434.5 x 18m 1426' x 59'ft
Surface:Grass
Runway 18 [A]Runway 36 [B]
Heading:168°TH 348°TH
Lat:
Lng:
31° 17' 25.12"S
54° 9' 23.6"W
31° 17' 38.88"S
54° 9' 20.4"W
User Notes and Comments
31° 17' 32" S / 54° 9' 22" W
Distance To
Airport ID:
Nearby Airports
4 Aeroclube 2.8 NM
SSCE SSE 152°
(U) Comandante Gustavo Kraemer 7.3 NM
SBBG ( WX ) SSE 159°
(U) Candiota 30.8 NM
SSIO ESE 116°
(U) Ana Paula 30.8 NM
SIAP S 172°
4 Refugio 31.7 NM
SSRQ NW 324°
(C) Dom Pedrito 36.5 NM
SSDP NW 304°
(C) Vichadero 42.5 NM
SUVO SW 219°
VFR Chart
Flight Planning at SkyVector.com